createdAt,value
2018-10-11T00:01:20.017Z,24.17
2018-10-11T00:05:23.782Z,23.73
2018-10-11T00:09:27.531Z,26.73
2018-10-11T00:13:31.264Z,30.77
2018-10-11T00:17:34.989Z,29.43
2018-10-11T00:21:39.202Z,25.23
2018-10-11T00:25:42.962Z,25.23
2018-10-11T00:29:46.724Z,26.37
2018-10-11T00:33:50.449Z,25.10
2018-10-11T00:37:54.256Z,30.63
2018-10-11T00:41:58.082Z,26.97
2018-10-11T00:46:01.813Z,25.70
2018-10-11T00:50:05.585Z,28.57
2018-10-11T00:54:09.565Z,26.30
2018-10-11T00:58:13.310Z,29.13
2018-10-11T01:02:17.018Z,26.37
2018-10-11T01:06:20.757Z,28.97
2018-10-11T01:10:24.553Z,24.53
2018-10-11T01:14:28.375Z,25.97
2018-10-11T01:18:32.205Z,28.07
2018-10-11T01:22:35.899Z,29.57
2018-10-11T01:26:39.742Z,27.93
2018-10-11T01:30:48.719Z,25.87
2018-10-11T01:34:52.465Z,27.53
2018-10-11T01:38:56.305Z,26.03
2018-10-11T01:43:04.654Z,25.50
2018-10-11T01:47:08.505Z,25.70
2018-10-11T01:51:12.325Z,27.23
2018-10-11T01:55:16.069Z,29.57
2018-10-11T01:59:19.784Z,25.07
2018-10-11T02:03:23.545Z,27.17
2018-10-11T02:07:27.237Z,27.73
2018-10-11T02:11:30.966Z,24.60
2018-10-11T02:15:34.686Z,26.80
2018-10-11T02:19:38.446Z,26.53
2018-10-11T02:23:42.286Z,27.07
2018-10-11T02:27:45.998Z,33.03
2018-10-11T02:31:49.757Z,27.50
2018-10-11T02:35:53.532Z,34.37
2018-10-11T02:39:57.413Z,25.10
2018-10-11T02:44:01.216Z,28.40
2018-10-11T02:48:05.547Z,30.63
2018-10-11T02:52:09.321Z,29.20
2018-10-11T02:56:13.349Z,29.30
2018-10-11T03:00:17.158Z,38.63
2018-10-11T03:04:21.013Z,29.77
2018-10-11T03:08:25.930Z,30.10
2018-10-11T03:12:29.684Z,33.27
2018-10-11T03:16:33.418Z,30.93
2018-10-11T03:20:37.178Z,36.47
2018-10-11T03:24:41.193Z,34.47
2018-10-11T03:28:44.909Z,32.07
2018-10-11T03:32:48.623Z,32.87
2018-10-11T03:36:52.373Z,38.20
2018-10-11T03:40:56.102Z,31.23
2018-10-11T03:44:59.833Z,28.80
2018-10-11T03:49:03.556Z,32.10
2018-10-11T03:53:07.356Z,34.43
2018-10-11T03:57:13.278Z,30.87
2018-10-11T04:01:18.626Z,34.57
2018-10-11T04:05:22.400Z,31.00
2018-10-11T04:09:26.108Z,37.83
2018-10-11T04:13:29.909Z,32.23
2018-10-11T04:17:33.737Z,35.10
2018-10-11T04:21:37.468Z,33.50
2018-10-11T04:25:41.194Z,37.67
2018-10-11T04:29:44.927Z,32.90
2018-10-11T04:33:48.633Z,42.00
2018-10-11T04:37:52.398Z,37.57
2018-10-11T04:41:56.221Z,34.47
2018-10-11T04:45:59.949Z,34.80
2018-10-11T04:50:03.681Z,31.10
2018-10-11T04:54:07.442Z,36.93
2018-10-11T04:58:11.219Z,34.17
2018-10-11T05:02:14.983Z,35.20
2018-10-11T05:06:18.747Z,33.53
2018-10-11T05:10:22.493Z,38.70
2018-10-11T05:14:26.442Z,37.10
2018-10-11T05:18:30.324Z,35.97
2018-10-11T05:22:34.090Z,37.23
2018-10-11T05:26:37.876Z,33.87
2018-10-11T05:30:43.885Z,35.13
2018-10-11T05:34:47.771Z,38.73
2018-10-11T05:38:51.548Z,35.87
2018-10-11T05:42:55.363Z,33.57
2018-10-11T05:46:59.312Z,38.97
2018-10-11T05:51:04.606Z,36.57
2018-10-11T05:55:08.393Z,35.23
2018-10-11T05:59:12.482Z,34.30
2018-10-11T06:03:16.264Z,34.07
2018-10-11T06:07:20.110Z,34.03
2018-10-11T06:11:23.940Z,37.70
2018-10-11T06:15:27.730Z,34.13
2018-10-11T06:19:31.546Z,34.63
2018-10-11T06:23:35.359Z,42.93
2018-10-11T06:27:39.179Z,42.27
2018-10-11T06:31:43.060Z,37.23
2018-10-11T06:35:46.996Z,35.93
2018-10-11T06:39:50.842Z,49.70
2018-10-11T06:43:54.669Z,38.70
2018-10-11T06:48:00.461Z,43.67
2018-10-11T06:52:04.262Z,45.07
2018-10-11T06:56:07.959Z,44.47
2018-10-11T07:00:11.795Z,47.30
2018-10-11T07:04:15.502Z,41.07
2018-10-11T07:08:19.324Z,46.63
2018-10-11T07:12:23.118Z,47.77
2018-10-11T07:16:26.834Z,43.93
2018-10-11T07:20:30.599Z,43.43
2018-10-11T07:24:34.411Z,36.43
2018-10-11T07:28:38.212Z,41.00
2018-10-11T07:32:41.915Z,38.03
2018-10-11T07:36:45.610Z,41.00
2018-10-11T07:40:49.453Z,39.80
2018-10-11T07:44:53.177Z,42.50
2018-10-11T07:48:56.882Z,35.20
2018-10-11T07:53:00.649Z,36.60
2018-10-11T07:57:04.712Z,36.17
2018-10-11T08:01:08.498Z,37.10
2018-10-11T08:05:12.352Z,32.97
2018-10-11T08:09:16.112Z,32.70
2018-10-11T08:13:19.909Z,34.23
2018-10-11T08:17:23.988Z,35.00
2018-10-11T08:21:27.351Z,32.30
2018-10-11T08:25:31.370Z,35.10
2018-10-11T08:29:34.900Z,30.13
2018-10-11T08:33:38.631Z,25.87
2018-10-11T08:37:42.447Z,20.90
2018-10-11T08:41:46.127Z,19.37
2018-10-11T08:45:49.851Z,22.53
2018-10-11T08:49:53.633Z,19.53
2018-10-11T08:54:01.579Z,19.83
2018-10-11T08:58:05.391Z,19.00
2018-10-11T09:02:09.410Z,17.47
2018-10-11T09:06:13.129Z,20.40
2018-10-11T09:10:16.861Z,16.53
2018-10-11T09:14:20.585Z,19.13
2018-10-11T09:18:24.399Z,17.63
2018-10-11T09:22:28.121Z,18.13
2018-10-11T09:26:31.914Z,14.70
2018-10-11T09:30:35.693Z,24.23
2018-10-11T09:34:39.466Z,18.27
2018-10-11T09:38:43.201Z,13.77
2018-10-11T09:42:46.954Z,18.50
2018-10-11T09:46:50.679Z,13.50
2018-10-11T09:50:54.418Z,15.90
2018-10-11T09:54:58.425Z,15.50
2018-10-11T09:59:02.051Z,15.27
2018-10-11T10:03:05.923Z,16.87
2018-10-11T10:07:10.086Z,18.20
2018-10-11T10:11:13.785Z,13.13
2018-10-11T10:15:17.538Z,15.97
2018-10-11T10:19:21.214Z,14.97
2018-10-11T10:23:24.920Z,15.80
2018-10-11T10:27:28.756Z,14.00
2018-10-11T10:31:32.425Z,16.30
2018-10-11T10:35:36.200Z,17.83
2018-10-11T10:39:39.937Z,17.67
2018-10-11T10:43:43.733Z,15.03
2018-10-11T10:47:47.466Z,13.77
2018-10-11T10:51:51.244Z,13.20
2018-10-11T10:55:54.957Z,15.03
2018-10-11T10:59:58.674Z,12.63
2018-10-11T11:04:02.431Z,13.83
2018-10-11T11:08:06.180Z,15.07
2018-10-11T11:12:09.885Z,13.50
2018-10-11T11:16:14.182Z,13.30
2018-10-11T11:20:17.871Z,15.27
2018-10-11T11:24:21.667Z,15.97
2018-10-11T11:28:25.450Z,13.53
2018-10-11T11:32:29.175Z,12.93
2018-10-11T11:36:32.949Z,12.03
2018-10-11T11:40:36.631Z,11.70
2018-10-11T11:44:40.364Z,15.37
2018-10-11T11:48:45.015Z,14.07
2018-10-11T11:52:48.725Z,12.63
2018-10-11T11:56:52.935Z,12.27
2018-10-11T12:00:56.654Z,14.20
2018-10-11T12:05:00.564Z,14.93
2018-10-11T12:09:07.006Z,13.87
2018-10-11T12:13:11.896Z,11.53
2018-10-11T12:17:15.614Z,15.70
2018-10-11T12:21:19.306Z,14.40
2018-10-11T12:25:23.122Z,12.97
2018-10-11T12:29:26.853Z,16.80
2018-10-11T12:33:30.567Z,10.93
2018-10-11T12:37:34.403Z,12.17
2018-10-11T12:41:38.166Z,12.20
2018-10-11T12:45:42.324Z,11.20
2018-10-11T12:49:48.468Z,12.50
2018-10-11T12:53:49.806Z,10.83
2018-10-11T12:57:53.506Z,11.53
2018-10-11T13:01:57.215Z,10.83
2018-10-11T13:06:00.904Z,13.23
2018-10-11T13:10:04.903Z,11.33
2018-10-11T13:14:08.717Z,11.90
2018-10-11T13:18:21.922Z,9.67
2018-10-11T13:22:26.139Z,14.00
2018-10-11T13:26:30.239Z,12.27
2018-10-11T13:30:34.317Z,11.07
2018-10-11T13:34:38.072Z,10.70
2018-10-11T13:38:41.837Z,13.17
2018-10-11T13:42:45.551Z,9.27
2018-10-11T13:46:49.392Z,12.83
2018-10-11T13:50:53.780Z,11.13
2018-10-11T13:54:57.497Z,11.33
2018-10-11T13:59:05.013Z,12.43
2018-10-11T14:03:05.096Z,22.27
2018-10-11T14:07:08.794Z,10.57
2018-10-11T14:11:12.593Z,10.33
2018-10-11T14:15:16.339Z,10.50
2018-10-11T14:19:20.079Z,11.37
2018-10-11T14:23:23.861Z,10.27
2018-10-11T14:27:27.711Z,11.43
2018-10-11T14:31:31.442Z,10.07
2018-10-11T14:35:35.200Z,12.43
2018-10-11T14:39:38.950Z,12.93
2018-10-11T14:43:42.717Z,10.27
2018-10-11T14:47:46.451Z,11.67
2018-10-11T14:51:50.204Z,11.53
2018-10-11T14:55:54.006Z,11.03
2018-10-11T14:59:57.829Z,11.30
2018-10-11T15:04:01.575Z,14.10
2018-10-11T15:08:05.304Z,11.27
2018-10-11T15:12:09.053Z,9.87
2018-10-11T15:16:12.821Z,9.73
2018-10-11T15:20:16.547Z,11.53
2018-10-11T15:24:20.290Z,11.47
2018-10-11T15:28:23.978Z,9.20
2018-10-11T15:32:27.710Z,9.90
2018-10-11T15:36:32.646Z,9.70
2018-10-11T15:40:36.472Z,10.03
2018-10-11T15:44:40.199Z,12.30
2018-10-11T15:48:43.883Z,11.90
2018-10-11T15:52:47.602Z,10.73
2018-10-11T15:56:51.365Z,12.97
2018-10-11T16:00:55.106Z,16.67
2018-10-11T16:04:58.829Z,9.10
2018-10-11T16:09:02.637Z,11.43
2018-10-11T16:13:06.337Z,11.30
2018-10-11T16:17:10.098Z,9.77
2018-10-11T16:21:13.835Z,10.73
2018-10-11T16:25:17.660Z,9.77
2018-10-11T16:29:21.367Z,10.30
2018-10-11T16:33:25.134Z,11.13
2018-10-11T16:37:28.947Z,9.60
2018-10-11T16:41:32.670Z,9.93
2018-10-11T16:45:36.441Z,10.47
2018-10-11T16:49:40.130Z,13.50
2018-10-11T16:53:43.901Z,10.47
2018-10-11T16:57:47.633Z,10.30
2018-10-11T17:01:51.419Z,14.60
2018-10-11T17:05:55.168Z,13.53
2018-10-11T17:09:58.997Z,10.77
2018-10-11T17:14:02.663Z,15.37
2018-10-11T17:18:06.590Z,14.07
2018-10-11T17:22:10.384Z,19.83
2018-10-11T17:26:14.324Z,11.03
2018-10-11T17:30:18.271Z,14.73
2018-10-11T17:34:22.004Z,12.30
2018-10-11T17:38:25.765Z,13.87
2018-10-11T17:42:29.521Z,10.83
2018-10-11T17:46:33.602Z,11.90
2018-10-11T17:50:37.332Z,14.83
2018-10-11T17:54:45.276Z,13.40
2018-10-11T17:58:49.018Z,12.77
2018-10-11T18:02:52.767Z,16.33
2018-10-11T18:06:56.535Z,17.20
2018-10-11T18:11:00.329Z,18.07
2018-10-11T18:15:04.084Z,14.67
2018-10-11T18:19:07.946Z,15.00
2018-10-11T18:23:11.654Z,11.90
2018-10-11T18:27:15.373Z,17.20
2018-10-11T18:31:19.068Z,18.03
2018-10-11T18:35:22.934Z,14.90
2018-10-11T18:39:26.682Z,17.10
2018-10-11T18:43:30.671Z,17.17
2018-10-11T18:47:34.464Z,16.17
2018-10-11T18:51:38.300Z,17.07
2018-10-11T18:55:42.027Z,14.13
2018-10-11T18:59:45.798Z,16.97
2018-10-11T19:03:49.501Z,12.63
2018-10-11T19:07:53.258Z,16.83
2018-10-11T19:11:56.979Z,15.13
2018-10-11T19:16:00.713Z,13.50
2018-10-11T19:20:04.560Z,14.47
2018-10-11T19:24:08.437Z,15.23
2018-10-11T19:28:12.146Z,13.57
2018-10-11T19:32:15.848Z,15.07
2018-10-11T19:36:19.625Z,13.83
2018-10-11T19:40:23.382Z,15.87
2018-10-11T19:44:27.102Z,14.07
2018-10-11T19:48:30.909Z,14.07
2018-10-11T19:52:34.637Z,17.17
2018-10-11T19:56:38.360Z,14.43
2018-10-11T20:00:42.134Z,14.63
2018-10-11T20:04:45.860Z,16.33
2018-10-11T20:08:49.586Z,13.87
2018-10-11T20:12:53.271Z,15.67
2018-10-11T20:16:56.985Z,14.10
2018-10-11T20:21:00.695Z,13.17
2018-10-11T20:25:04.511Z,15.33
2018-10-11T20:29:08.270Z,19.50
2018-10-11T20:33:11.978Z,17.57
2018-10-11T20:37:15.731Z,15.70
2018-10-11T20:41:19.437Z,21.13
2018-10-11T20:45:23.165Z,19.40
2018-10-11T20:49:26.950Z,17.27
2018-10-11T20:53:30.671Z,16.13
2018-10-11T20:57:34.397Z,15.43
2018-10-11T21:01:38.143Z,16.93
2018-10-11T21:05:41.911Z,15.93
2018-10-11T21:09:45.618Z,17.73
2018-10-11T21:13:49.364Z,16.53
2018-10-11T21:17:53.101Z,16.23
2018-10-11T21:21:56.926Z,14.53
2018-10-11T21:26:00.812Z,17.97
2018-10-11T21:30:04.583Z,15.33
2018-10-11T21:34:08.331Z,15.73
2018-10-11T21:38:12.102Z,14.90
2018-10-11T21:42:15.903Z,16.07
2018-10-11T21:46:19.802Z,17.93
2018-10-11T21:50:23.485Z,14.80
2018-10-11T21:54:27.234Z,15.40
2018-10-11T21:58:30.941Z,13.93
2018-10-11T22:02:34.657Z,13.50
2018-10-11T22:06:38.488Z,15.83
2018-10-11T22:10:42.270Z,16.57
2018-10-11T22:14:46.116Z,13.40
2018-10-11T22:18:49.861Z,16.90
2018-10-11T22:22:53.601Z,13.53
2018-10-11T22:26:57.313Z,16.97
2018-10-11T22:31:00.985Z,14.57
2018-10-11T22:35:04.815Z,17.20
2018-10-11T22:39:10.602Z,11.63
2018-10-11T22:43:14.393Z,15.53
2018-10-11T22:47:18.209Z,17.53
2018-10-11T22:51:21.999Z,13.50
2018-10-11T22:55:26.627Z,20.00
2018-10-11T22:59:30.439Z,13.10
2018-10-11T23:03:34.152Z,15.50
2018-10-11T23:07:37.881Z,14.93
2018-10-11T23:11:41.574Z,14.77
2018-10-11T23:15:45.278Z,13.67
2018-10-11T23:41:59.152Z,15.73
2018-10-11T23:46:02.901Z,13.73
2018-10-11T23:50:06.739Z,16.00
2018-10-11T23:54:10.454Z,16.80
2018-10-11T23:58:14.145Z,14.70
